sensor_id;sensor_type;location;lat;lon;timestamp;P1;durP1;ratioP1;P2;durP2;ratioP2
22097;SDS011;11215;51.938;8.464;2023-04-15T04:01:01;8.43;;;5.93;;
22097;SDS011;11215;51.938;8.464;2023-04-15T04:03:26;8.23;;;6.60;;
22097;SDS011;11215;51.938;8.464;2023-04-15T04:05:52;9.50;;;6.40;;
22097;SDS011;11215;51.938;8.464;2023-04-15T04:08:18;7.83;;;6.77;;
22097;SDS011;11215;51.938;8.464;2023-04-15T04:10:45;8.23;;;6.50;;
22097;SDS011;11215;51.938;8.464;2023-04-15T04:13:11;7.80;;;6.60;;
22097;SDS011;11215;51.938;8.464;2023-04-15T04:15:36;9.63;;;7.10;;
22097;SDS011;11215;51.938;8.464;2023-04-15T04:18:02;7.63;;;6.10;;
22097;SDS011;11215;51.938;8.464;2023-04-15T04:20:28;10.80;;;6.57;;
22097;SDS011;11215;51.938;8.464;2023-04-15T04:22:56;7.47;;;5.93;;
22097;SDS011;11215;51.938;8.464;2023-04-15T04:25:21;9.33;;;6.70;;
22097;SDS011;11215;51.938;8.464;2023-04-15T04:27:48;11.50;;;7.90;;
22097;SDS011;11215;51.938;8.464;2023-04-15T04:30:14;16.47;;;11.77;;
22097;SDS011;11215;51.938;8.464;2023-04-15T04:32:40;16.60;;;12.03;;
22097;SDS011;11215;51.938;8.464;2023-04-15T04:35:05;20.47;;;14.97;;
22097;SDS011;11215;51.938;8.464;2023-04-15T04:37:32;19.13;;;13.97;;
22097;SDS011;11215;51.938;8.464;2023-04-15T04:39:57;16.07;;;12.17;;
22097;SDS011;11215;51.938;8.464;2023-04-15T04:42:23;16.87;;;12.47;;
22097;SDS011;11215;51.938;8.464;2023-04-15T04:44:48;16.27;;;11.20;;
22097;SDS011;11215;51.938;8.464;2023-04-15T04:47:14;16.97;;;12.57;;
22097;SDS011;11215;51.938;8.464;2023-04-15T04:49:40;17.90;;;13.13;;
22097;SDS011;11215;51.938;8.464;2023-04-15T04:52:06;19.57;;;13.63;;
22097;SDS011;11215;51.938;8.464;2023-04-15T04:54:32;24.23;;;16.53;;
22097;SDS011;11215;51.938;8.464;2023-04-15T04:56:57;21.17;;;12.87;;
22097;SDS011;11215;51.938;8.464;2023-04-15T04:59:24;14.00;;;10.77;;
22097;SDS011;11215;51.938;8.464;2023-04-15T05:01:49;12.63;;;8.90;;
22097;SDS011;11215;51.938;8.464;2023-04-15T05:04:15;11.03;;;8.63;;
22097;SDS011;11215;51.938;8.464;2023-04-15T05:06:40;11.23;;;8.03;;
22097;SDS011;11215;51.938;8.464;2023-04-15T05:09:06;10.33;;;7.40;;
22097;SDS011;11215;51.938;8.464;2023-04-15T05:11:32;8.97;;;7.07;;
22097;SDS011;11215;51.938;8.464;2023-04-15T05:13:57;9.53;;;6.83;;
22097;SDS011;11215;51.938;8.464;2023-04-15T05:16:26;12.47;;;7.53;;
22097;SDS011;11215;51.938;8.464;2023-04-15T05:18:52;9.67;;;7.27;;
22097;SDS011;11215;51.938;8.464;2023-04-15T05:21:18;10.27;;;7.23;;
22097;SDS011;11215;51.938;8.464;2023-04-15T05:23:45;8.77;;;6.30;;
22097;SDS011;11215;51.938;8.464;2023-04-15T05:26:11;9.97;;;7.60;;
22097;SDS011;11215;51.938;8.464;2023-04-15T05:28:37;9.13;;;7.23;;
22097;SDS011;11215;51.938;8.464;2023-04-15T05:31:02;10.43;;;7.67;;
22097;SDS011;11215;51.938;8.464;2023-04-15T05:33:28;10.57;;;7.97;;
22097;SDS011;11215;51.938;8.464;2023-04-15T05:35:54;11.23;;;8.23;;
22097;SDS011;11215;51.938;8.464;2023-04-15T05:38:19;10.67;;;8.10;;
22097;SDS011;11215;51.938;8.464;2023-04-15T05:40:45;12.37;;;8.40;;
22097;SDS011;11215;51.938;8.464;2023-04-15T05:43:11;10.53;;;7.67;;
22097;SDS011;11215;51.938;8.464;2023-04-15T05:45:36;9.83;;;7.77;;
22097;SDS011;11215;51.938;8.464;2023-04-15T05:48:02;12.07;;;8.70;;
22097;SDS011;11215;51.938;8.464;2023-04-15T05:50:28;11.33;;;8.60;;
22097;SDS011;11215;51.938;8.464;2023-04-15T05:52:53;13.13;;;9.63;;
22097;SDS011;11215;51.938;8.464;2023-04-15T05:55:20;12.17;;;9.20;;
22097;SDS011;11215;51.938;8.464;2023-04-15T05:57:46;12.03;;;8.83;;
22097;SDS011;11215;51.938;8.464;2023-04-15T06:00:11;12.07;;;9.03;;
22097;SDS011;11215;51.938;8.464;2023-04-15T06:02:38;15.37;;;9.53;;
22097;SDS011;11215;51.938;8.464;2023-04-15T06:05:04;13.83;;;9.50;;
22097;SDS011;11215;51.938;8.464;2023-04-15T06:07:33;12.80;;;8.97;;
22097;SDS011;11215;51.938;8.464;2023-04-15T06:10:01;15.83;;;9.50;;
22097;SDS011;11215;51.938;8.464;2023-04-15T06:12:27;13.93;;;10.37;;
22097;SDS011;11215;51.938;8.464;2023-04-15T06:14:53;13.60;;;9.97;;
22097;SDS011;11215;51.938;8.464;2023-04-15T06:17:21;12.63;;;9.43;;
